Weather reports worldwide

Advertisment
Elgoibar, Spain (8036): temperature & dewpoint: 10.07.2018 18:00:00 - 16.07.2018 18:00:00 (CEST)Elgoibar, Spain (8036): wind speed & gusts: 10.07.2018 18:00:00 - 16.07.2018 18:00:00 (CEST)Elgoibar, Spain (8036): wind direction: 10.07.2018 18:00:00 - 16.07.2018 18:00:00 (CEST)Elgoibar, Spain (8036): reduced air pressure: 10.07.2018 18:00:00 - 16.07.2018 18:00:00 (CEST)Elgoibar, Spain (8036): precipitation: 10.07.2018 18:00:00 - 16.07.2018 18:00:00 (CEST)
Date & Time tt [°C] td [°C] ff [km/h] ff [kn] fx [km/h] fx [kn] dd ppp [hPa] rr [mm]
16.07.2018 18:00:00 - - - - - - - - -
16.07.2018 17:00:00 19,1 15,8 5 3 23 12 W 1020,8 0,0
16.07.2018 16:00:00 20,1 16,7 6 4 18 10 W 1020,5 0,0
16.07.2018 15:00:00 19,1 17,2 1 1 13 7 SE 1020,4 0,8
16.07.2018 14:00:00 18,2 15,6 4 2 21 11 NNE 1020,3 -
16.07.2018 13:00:00 18,5 14,8 5 3 22 12 NW 1020,2 1,4
16.07.2018 12:00:00 20,1 15,1 6 3 26 14 W 1019,0 0,0
16.07.2018 11:00:00 20,4 15,8 4 2 29 15 WSW 1018,6 0,0
16.07.2018 10:00:00 18,9 15,5 7 4 23 12 NNW 1018,4 0,0
16.07.2018 09:00:00 18,5 15,7 3 1 18 10 NNW 1017,6 0,0
16.07.2018 08:00:00 18,1 15,2 7 4 29 15 WSW 1018,0 -
16.07.2018 07:00:00 18,8 15,7 5 3 24 13 W 1017,1 0,1
16.07.2018 06:00:00 19,3 16,1 7 4 27 15 W 1016,4 0,0
16.07.2018 05:00:00 19,6 16,5 6 4 21 12 W 1016,5 0,0
16.07.2018 04:00:00 19,7 16,9 6 3 16 9 W 1016,6 0,0
16.07.2018 03:00:00 19,8 17,2 1 0 12 7 SSW 1017,0 0,0
16.07.2018 02:00:00 19,6 17,9 0 0 14 8 WNW 1016,8 -
16.07.2018 01:00:00 18,9 17,2 5 3 12 6 E 1016,4 0,0
16.07.2018 00:00:00 19,6 17,8 1 0 17 9 WSW 1016,8 0,0
15.07.2018 23:00:00 19,4 17,5 1 0 10 5 SSE 1017,3 0,1
15.07.2018 22:00:00 19,8 17,8 1 1 14 8 SSW 1016,1 0,0
15.07.2018 21:00:00 20,4 16,8 2 1 11 6 WNW 1015,4 0,1
15.07.2018 20:00:00 21,8 15,2 0 0 18 10 N 1015,2 -
15.07.2018 19:00:00 22,8 15,2 6 3 21 12 NW 1014,6 0,0
15.07.2018 18:00:00 24,9 16,6 9 5 22 12 NNE 1013,5 0,0
15.07.2018 17:00:00 24,7 18,4 8 5 20 11 NE 1013,8 0,0
15.07.2018 16:00:00 25,1 18,8 9 5 21 11 N 1013,9 0,0
15.07.2018 15:00:00 25,0 18,9 5 3 18 10 NNE 1014,3 0,0
15.07.2018 14:00:00 25,4 18,8 10 6 16 9 NNW 1014,4 -
15.07.2018 13:00:00 26,1 18,2 3 1 10 5 NNW 1014,6 0,0
15.07.2018 12:00:00 24,5 17,7 0 0 14 8 N 1015,0 0,0
15.07.2018 11:00:00 23,9 18,5 7 4 16 9 SW 1015,2 0,0
15.07.2018 10:00:00 22,2 21,0 4 2 11 6 SW 1015,4 0,0
15.07.2018 09:00:00 20,0 19,3 0 0 0 0 N 1015,6 0,0
15.07.2018 08:00:00 18,6 17,9 0 0 0 0 N 1015,6 -
15.07.2018 07:00:00 18,3 17,6 0 0 0 0 N 1015,7 0,0
15.07.2018 06:00:00 18,6 17,8 0 0 0 0 N 1015,2 0,0
15.07.2018 05:00:00 18,9 18,1 0 0 0 0 N 1015,2 0,0
15.07.2018 04:00:00 19,2 18,4 0 0 8 4 N 1015,3 0,0
15.07.2018 03:00:00 19,5 18,7 0 0 5 3 N 1015,6 0,1
15.07.2018 02:00:00 20,2 19,2 3 2 11 6 WSW 1015,8 -
15.07.2018 01:00:00 20,5 19,1 2 1 7 4 ESE 1016,5 6,2
15.07.2018 00:00:00 21,2 19,3 2 1 6 3 SSW 1016,2 1,4
14.07.2018 23:00:00 21,4 19,0 1 1 8 4 NE 1015,8 0,0
14.07.2018 22:00:00 21,6 19,0 3 1 16 9 W 1015,2 0,0
14.07.2018 21:00:00 22,0 18,8 0 0 17 9 ENE 1015,1 0,0
14.07.2018 20:00:00 22,2 18,4 5 3 11 6 ESE 1014,9 -
14.07.2018 19:00:00 22,9 17,6 6 3 21 11 NNE 1014,8 0,0
14.07.2018 18:00:00 23,7 18,3 10 5 20 11 N 1014,5 0,0
14.07.2018 17:00:00 24,5 19,1 11 6 21 12 N 1014,9 0,0
14.07.2018 16:00:00 24,9 19,5 11 6 22 12 N 1015,0 0,0
14.07.2018 15:00:00 25,1 19,5 11 6 24 13 N 1015,4 0,0
14.07.2018 14:00:00 25,5 19,1 10 5 18 10 N 1015,6 -
14.07.2018 13:00:00 25,3 19,0 8 4 13 7 NNW 1016,1 0,1
14.07.2018 12:00:00 24,7 19,3 2 1 11 6 NNE 1016,4 0,0
14.07.2018 11:00:00 21,9 18,5 4 2 11 6 SW 1017,0 0,0
14.07.2018 10:00:00 20,0 18,3 6 3 14 7 SW 1017,3 0,0
14.07.2018 09:00:00 18,6 17,9 0 0 11 6 E 1017,3 0,0
14.07.2018 08:00:00 17,4 16,6 0 0 6 3 SSW 1016,7 -
14.07.2018 07:00:00 16,8 16,0 0 0 11 6 N 1016,6 0,0
14.07.2018 06:00:00 17,2 16,4 0 0 6 3 N 1016,5 0,0
14.07.2018 05:00:00 18,0 17,1 2 1 11 6 ESE 1016,4 0,0
14.07.2018 04:00:00 18,5 17,5 0 0 15 8 N 1016,1 0,1
14.07.2018 03:00:00 19,2 18,2 5 3 13 7 WSW 1016,7 0,2
14.07.2018 02:00:00 19,5 18,3 6 3 18 10 SW 1019,4 -
14.07.2018 01:00:00 19,5 18,0 6 3 11 6 SE 1019,0 1,2
14.07.2018 00:00:00 19,6 17,5 0 0 13 7 N 1018,8 0,0
13.07.2018 23:00:00 20,0 17,4 4 2 11 6 ENE 1017,9 0,0
13.07.2018 22:00:00 20,4 16,8 8 4 14 7 E 1016,9 0,0
13.07.2018 21:00:00 21,1 16,5 4 2 21 11 NNW 1017,4 0,0
13.07.2018 20:00:00 21,6 16,6 7 4 17 9 N 1015,9 -
13.07.2018 19:00:00 22,4 16,6 5 3 16 8 N 1016,3 0,0
13.07.2018 18:00:00 22,1 16,1 9 5 20 11 N 1016,1 0,0
13.07.2018 17:00:00 23,2 17,0 9 5 22 12 N 1016,4 0,0
13.07.2018 16:00:00 23,3 16,8 12 6 25 14 N 1016,3 0,0
13.07.2018 15:00:00 23,3 16,8 14 7 25 13 NNW 1016,6 0,0
13.07.2018 14:00:00 23,3 16,8 11 6 20 11 N 1017,0 -
13.07.2018 13:00:00 23,5 17,1 1 1 10 5 NE 1017,4 0,0
13.07.2018 12:00:00 21,0 17,2 0 0 0 0 N 1018,1 0,0
13.07.2018 11:00:00 18,2 16,9 0 0 0 0 N 1018,5 0,0
13.07.2018 10:00:00 17,0 16,4 0 0 0 0 N 1018,6 0,0
13.07.2018 09:00:00 14,5 13,9 0 0 0 0 N 1018,6 0,1
13.07.2018 08:00:00 14,4 13,8 0 0 12 6 N 1018,8 -
13.07.2018 07:00:00 13,8 13,2 0 0 0 0 N 1018,7 0,0
13.07.2018 06:00:00 13,7 13,0 0 0 4 2 N 1018,8 0,0
13.07.2018 05:00:00 13,7 13,0 0 0 7 4 N 1018,9 0,0
13.07.2018 04:00:00 13,9 13,0 0 0 6 3 N 1018,7 0,0
13.07.2018 03:00:00 14,2 13,1 0 0 0 0 N 1019,1 0,0
13.07.2018 02:00:00 14,8 13,6 0 0 0 0 N 1019,4 -
13.07.2018 01:00:00 15,2 13,6 0 0 0 0 N 1019,4 0,0
13.07.2018 00:00:00 16,1 13,9 0 0 6 3 N 1019,4 0,0
12.07.2018 23:00:00 16,8 13,8 1 0 6 4 E 1019,1 0,0
12.07.2018 22:00:00 18,6 13,7 3 1 9 5 ENE 1018,5 0,0
12.07.2018 21:00:00 20,1 13,6 6 3 16 9 NNW 1018,1 0,0
12.07.2018 20:00:00 20,9 14,3 8 4 19 10 NNW 1017,5 -
12.07.2018 19:00:00 21,2 15,1 10 5 21 11 NNW 1017,4 0,0
12.07.2018 18:00:00 21,7 16,0 9 5 19 11 N 1017,4 0,0
12.07.2018 17:00:00 22,3 16,6 8 5 16 9 NNE 1017,3 0,0
12.07.2018 16:00:00 22,6 16,6 7 4 17 9 N 1017,3 0,0
12.07.2018 15:00:00 22,0 17,1 5 3 11 6 N 1017,7 0,0
12.07.2018 14:00:00 21,4 19,0 2 1 8 5 NE 1017,8 -
12.07.2018 13:00:00 19,5 18,2 0 0 0 0 N 1018,3 0,0
12.07.2018 12:00:00 18,5 17,4 1 1 10 5 WSW 1018,1 0,8
12.07.2018 11:00:00 18,0 16,8 0 0 8 4 SW 1017,9 0,1
12.07.2018 10:00:00 17,3 16,1 0 0 15 8 WSW 1017,6 3,1
12.07.2018 09:00:00 18,2 16,6 2 1 24 13 E 1017,0 5,9
12.07.2018 08:00:00 19,1 17,8 1 1 11 6 NNE 1016,2 -
12.07.2018 07:00:00 18,6 17,3 0 0 0 0 N 1015,8 0,0
12.07.2018 06:00:00 18,4 17,1 0 0 0 0 N 1015,5 0,0
12.07.2018 05:00:00 18,5 17,0 0 0 5 3 N 1015,3 0,0
12.07.2018 04:00:00 18,5 16,8 0 0 11 6 S 1015,4 0,0
12.07.2018 03:00:00 18,9 17,2 0 0 6 3 N 1015,6 0,0
12.07.2018 02:00:00 19,2 17,5 0 0 0 0 N 1016,0 -
12.07.2018 01:00:00 19,6 17,4 0 0 0 0 N 1015,7 0,0
12.07.2018 00:00:00 20,1 17,5 0 0 0 0 N 1016,0 0,0
11.07.2018 23:00:00 20,9 17,9 0 0 7 4 NNE 1015,7 0,0
11.07.2018 22:00:00 21,7 17,7 0 0 15 8 NNE 1015,0 0,0
11.07.2018 21:00:00 22,1 16,8 6 3 17 9 NNW 1014,7 0,0
11.07.2018 20:00:00 22,5 16,7 8 4 20 11 NNW 1014,4 -
11.07.2018 19:00:00 23,4 17,1 8 4 15 8 ENE 1014,0 0,0
11.07.2018 18:00:00 22,8 17,5 7 4 32 17 NNW 1014,7 0,0
11.07.2018 17:00:00 22,9 16,6 14 8 29 16 N 1014,1 0,0
11.07.2018 16:00:00 24,2 17,0 3 2 14 8 WNW 1016,7 0,0
11.07.2018 15:00:00 24,6 16,8 4 2 17 9 E 1016,8 0,0
11.07.2018 14:00:00 24,3 16,6 8 4 21 11 N 1016,3 -
11.07.2018 13:00:00 24,4 16,9 9 5 20 11 NNE 1015,9 0,0
11.07.2018 12:00:00 23,7 17,0 3 2 11 6 NNE 1016,2 0,0
11.07.2018 11:00:00 22,6 17,3 4 2 10 6 ENE 1016,4 0,0
11.07.2018 10:00:00 20,8 16,8 6 3 13 7 SW 1017,0 0,0
11.07.2018 09:00:00 19,0 17,9 0 0 0 0 N 1017,2 0,0
11.07.2018 08:00:00 17,0 15,9 0 0 0 0 N 1017,6 -
11.07.2018 07:00:00 16,4 15,3 0 0 10 5 N 1017,6 0,0
11.07.2018 06:00:00 16,5 15,3 5 3 13 7 SW 1017,6 0,0
11.07.2018 05:00:00 16,4 15,3 5 3 13 7 SSW 1017,9 0,0
11.07.2018 04:00:00 16,2 15,1 0 0 6 3 N 1018,1 0,0
11.07.2018 03:00:00 16,4 15,1 0 0 0 0 N 1018,4 0,0
11.07.2018 02:00:00 16,8 15,3 0 0 5 3 N 1018,7 -
11.07.2018 01:00:00 17,4 15,7 0 0 0 0 N 1018,7 0,0
11.07.2018 00:00:00 18,6 16,6 0 0 0 0 N 1018,8 0,0
10.07.2018 23:00:00 19,8 17,2 0 0 2 1 N 1018,8 0,0
10.07.2018 22:00:00 21,0 17,6 1 1 13 7 WNW 1018,4 0,0
10.07.2018 21:00:00 22,0 16,7 7 4 18 10 N 1018,2 0,0
10.07.2018 20:00:00 23,3 16,6 8 5 17 9 NNW 1017,7 -
10.07.2018 19:00:00 24,1 17,4 8 4 18 10 N 1017,7 0,0
10.07.2018 18:00:00 24,4 17,6 10 6 19 10 N 1017,9 0,0

tt = temperature
td = dewpoint
ff = wind speed
fx = gusts
dd = wind direction
ppp = reduced air pressure
rr = precipitation

Next stations